Arthur Brusco — WDC3449 — position and weather

sailwx.info

Track history (hours):
 
Tides and Currents Weather Stations Pressure Air Temp Water Temp Dewpoint Dewpoint Depression Visibility Wind Speed Wind Dir Waves Ship Positions

Arthur Brusco

Owner: Brusco Tug & Barge, Inc, Longview, WA. More information available from US FCC via Universal Licensing System and Coast Guard Vessel Documentation Center.

Last reported at 2017-Feb-26 01:33 UTC. Time now 2017-Apr-30 11:10 UTC.
Position N 46°12' W 123°23'.
Warning: this ship's position is months out of date.

Length 35 m; draft 3.2 m.

Type: Other ship. MMSI: 271040404.

Date/timePositionNaut miles runAvg speedWind from/ knotsBaromVisibWave heightAir tempDewpointWater temp
2017-Feb-26 01:33N 46°12' W 123°23'0 0.0
2017-Feb-26 00:33N 46°12' W 123°23'0 0.0
2017-Feb-25 23:33N 46°12' W 123°23'1 0.7
2017-Feb-25 22:34N 46°12' W 123°24'4 4.3
2017-Feb-25 21:33N 46°09' W 123°21'1110.7
2017-Feb-25 20:33N 46°10' W 123°05'1212.0
2017-Feb-25 19:33N 46°02' W 122°53'1212.2
2017-Feb-25 18:33N 45°51' W 122°47'8 8.1
2017-Feb-25 17:33N 45°43' W 122°46'6 5.9
2017-Feb-25 16:33N 45°37' W 122°47'4 3.6
2017-Feb-25 15:33N 45°34' W 122°44'0 0.0
2017-Feb-25 14:34N 45°34' W 122°44'0 0.4
2017-Feb-25 13:33N 45°34' W 122°43'0 0.0
2017-Feb-25 12:33N 45°34' W 122°43'5 4.6
2017-Feb-25 11:33N 45°37' W 122°47'9 8.5
2017-Feb-25 10:33N 45°46' W 122°46'8 8.1
2017-Feb-25 09:33N 45°54' W 122°48'8 8.1
2017-Feb-25 08:33N 46°01' W 122°52'7 6.7
2017-Feb-25 07:33N 46°06' W 122°58'8 8.0
2017-Feb-25 06:33N 46°11' W 123°08'9 8.9
2017-Feb-25 05:33N 46°09' W 123°20'5 4.8
2017-Feb-25 04:33N 46°12' W 123°24'1 0.6
2017-Feb-25 03:33N 46°12' W 123°23'0 0.0
2017-Feb-25 02:33N 46°12' W 123°23'0 0.0
2017-Feb-25 01:33N 46°12' W 123°23'0 0.0
2017-Feb-25 00:33N 46°12' W 123°23'0 0.0
2017-Feb-24 23:33N 46°12' W 123°23'0 0.0
2017-Feb-24 22:33N 46°12' W 123°23'0 0.0
2017-Feb-24 21:33N 46°12' W 123°23'0 0.0
2017-Feb-24 20:33N 46°12' W 123°23'0 0.0
2017-Feb-24 19:33N 46°12' W 123°23'0 0.0
2017-Feb-24 18:33N 46°12' W 123°23'0 0.0
2017-Feb-24 17:33N 46°12' W 123°23'0 0.0
2017-Feb-24 16:33N 46°12' W 123°23'0 0.0
2017-Feb-24 15:33N 46°12' W 123°23'0 0.0
2017-Feb-24 14:33N 46°12' W 123°23'0 0.0
2017-Feb-24 13:33N 46°12' W 123°23'0 0.0
2017-Feb-24 12:33N 46°12' W 123°23'0 0.0
2017-Feb-24 11:33N 46°12' W 123°23'0 0.0
2017-Feb-24 10:33N 46°12' W 123°23'0 0.0
2017-Feb-24 09:34N 46°12' W 123°23'0 0.0
2017-Feb-24 08:33N 46°12' W 123°23'0 0.0
2017-Feb-24 07:33N 46°12' W 123°23'0 0.0
2017-Feb-24 06:33N 46°12' W 123°23'0 0.0
2017-Feb-24 05:33N 46°12' W 123°23'0 0.0
2017-Feb-24 04:33N 46°12' W 123°23'0 0.0
2017-Feb-24 03:33N 46°12' W 123°23'0 0.0
2017-Feb-24 02:33N 46°12' W 123°23'0 0.0
2017-Feb-24 01:33N 46°12' W 123°23'0 0.0
2017-Feb-24 00:33N 46°12' W 123°23'0 0.0
2017-Feb-23 23:33N 46°12' W 123°23'0 0.0
2017-Feb-23 22:33N 46°12' W 123°23'0 0.1
2017-Feb-23 21:33N 46°12' W 123°23'0 0.1
2017-Feb-23 20:33N 46°12' W 123°23'0 0.0
2017-Feb-23 19:33N 46°12' W 123°23'0 0.0
2017-Feb-23 18:33N 46°12' W 123°23'0 0.0
2017-Feb-23 17:33N 46°12' W 123°23'0 0.0
2017-Feb-23 16:33N 46°12' W 123°23'0 0.0
2017-Feb-23 15:33N 46°12' W 123°23'0 0.0
2017-Feb-23 14:33N 46°12' W 123°23'0 0.0
2017-Feb-23 13:33N 46°12' W 123°23'0 0.0
2017-Feb-23 12:33N 46°12' W 123°23'0 0.0
2017-Feb-23 11:34N 46°12' W 123°23'0 0.0
2017-Feb-23 10:33N 46°12' W 123°23'0 0.0
2017-Feb-23 09:33N 46°12' W 123°23'0 0.0
2017-Feb-23 08:33N 46°12' W 123°23'0 0.0
2017-Feb-23 07:33N 46°12' W 123°23'0 0.0
2017-Feb-23 06:33N 46°12' W 123°23'0 0.0
2017-Feb-23 05:33N 46°12' W 123°23'0 0.0
2017-Feb-23 04:33N 46°12' W 123°23'0 0.0
2017-Feb-23 03:33N 46°12' W 123°23'0 0.0
2017-Feb-23 02:33N 46°12' W 123°23'0 0.0
2017-Feb-23 01:33N 46°12' W 123°23'0 0.0
2017-Feb-23 00:33N 46°12' W 123°23'0 0.0
2017-Feb-22 23:33N 46°12' W 123°23'0 0.0
2017-Feb-22 22:33N 46°12' W 123°23'0 0.0
2017-Feb-22 21:33N 46°12' W 123°23'0 0.0
2017-Feb-22 20:33N 46°12' W 123°23'0 0.0
2017-Feb-22 19:33N 46°12' W 123°23'0 0.0
2017-Feb-22 18:34N 46°12' W 123°23'0 0.0
2017-Feb-22 17:33N 46°12' W 123°23'0 0.0
2017-Feb-22 16:33N 46°12' W 123°23'0 0.0
2017-Feb-22 15:33N 46°12' W 123°23'0 0.0
2017-Feb-22 14:33N 46°12' W 123°23'0 0.0
2017-Feb-22 13:33N 46°12' W 123°23'0 0.0
2017-Feb-22 12:33N 46°12' W 123°23'0 0.0
2017-Feb-22 11:33N 46°12' W 123°23'0 0.0
2017-Feb-22 10:33N 46°12' W 123°23'0 0.0
2017-Feb-22 09:33N 46°12' W 123°23'0 0.0
2017-Feb-22 08:33N 46°12' W 123°23'0 0.0
2017-Feb-22 07:33N 46°12' W 123°23'0 0.0
2017-Feb-22 06:33N 46°12' W 123°23'0 0.0
2017-Feb-22 05:33N 46°12' W 123°23'0 0.0
2017-Feb-22 04:33N 46°12' W 123°23'0 0.0
2017-Feb-22 03:33N 46°12' W 123°23'0 0.0
2017-Feb-22 02:33N 46°12' W 123°23'0 0.0
2017-Feb-22 01:33N 46°12' W 123°23'0 0.0
2017-Feb-22 00:33N 46°12' W 123°23'0 0.0
2017-Feb-21 23:33N 46°12' W 123°23'0 0.0
2017-Feb-21 22:33N 46°12' W 123°23'0 0.0
2017-Feb-21 21:33N 46°12' W 123°23'0 0.0
2017-Feb-21 20:33N 46°12' W 123°23'0 0.0
2017-Feb-21 19:33N 46°12' W 123°23'0 0.0
2017-Feb-21 18:33N 46°12' W 123°23'0 0.0
2017-Feb-21 17:33N 46°12' W 123°23'0 0.0
2017-Feb-21 16:33N 46°12' W 123°23'0 0.0
2017-Feb-21 15:33N 46°12' W 123°23'0 0.0
2017-Feb-21 14:33N 46°12' W 123°23'0 0.0
2017-Feb-21 13:33N 46°12' W 123°23'0 0.0
2017-Feb-21 12:33N 46°12' W 123°23'0 0.0
2017-Feb-21 11:33N 46°12' W 123°23'0 0.0
2017-Feb-21 10:33N 46°12' W 123°23'0 0.0
2017-Feb-21 09:33N 46°12' W 123°23'0 0.0
2017-Feb-21 08:33N 46°12' W 123°23'0 0.0
2017-Feb-21 07:33N 46°12' W 123°23'0 0.0
2017-Feb-21 06:33N 46°12' W 123°23'0 0.0
2017-Feb-21 05:33N 46°12' W 123°23'0 0.0
2017-Feb-21 04:33N 46°12' W 123°23'0 0.0
2017-Feb-21 03:33N 46°12' W 123°23'0 0.0
2017-Feb-21 02:33N 46°12' W 123°23'0 0.0
2017-Feb-21 01:33N 46°12' W 123°23'0 0.0
2017-Feb-21 00:33N 46°12' W 123°23'0 0.0
2017-Feb-20 23:33N 46°12' W 123°23'0 0.0
2017-Feb-20 22:33N 46°12' W 123°23'0 0.0
2017-Feb-20 21:33N 46°12' W 123°23'0 0.0
2017-Feb-20 20:33N 46°12' W 123°23'0 0.0
2017-Feb-20 19:33N 46°12' W 123°23'0 0.0
2017-Feb-20 18:33N 46°12' W 123°23'0 0.0
2017-Feb-20 17:33N 46°12' W 123°23'0 0.0
2017-Feb-20 16:33N 46°12' W 123°23'0 0.0
2017-Feb-20 15:33N 46°12' W 123°23'0 0.0
2017-Feb-20 14:33N 46°12' W 123°23'0 0.0
2017-Feb-20 13:33N 46°12' W 123°23'0 0.0
2017-Feb-20 12:33N 46°12' W 123°23'0 0.0
2017-Feb-20 11:33N 46°12' W 123°23'0 0.0
2017-Feb-20 10:33N 46°12' W 123°23'0 0.0
2017-Feb-20 09:33N 46°12' W 123°23'0 0.0
2017-Feb-20 08:33N 46°12' W 123°23'0 0.0
2017-Feb-20 07:33N 46°12' W 123°23'0 0.0
2017-Feb-20 06:33N 46°12' W 123°23'0 0.0
2017-Feb-20 05:33N 46°12' W 123°23'0 0.0
2017-Feb-20 04:33N 46°12' W 123°23'0 0.0
2017-Feb-20 03:33N 46°12' W 123°23'0 0.0
2017-Feb-20 02:33N 46°12' W 123°23'0 0.0
2017-Feb-20 01:33N 46°12' W 123°23'0 0.0
2017-Feb-20 00:33N 46°12' W 123°23'0 0.0
2017-Feb-19 23:33N 46°12' W 123°23'0 0.0
2017-Feb-19 22:33N 46°12' W 123°23'0 0.0
2017-Feb-19 21:33N 46°12' W 123°23'0 0.0
2017-Feb-19 20:33N 46°12' W 123°23'0 0.0
2017-Feb-19 19:33N 46°12' W 123°23'0 0.0
2017-Feb-19 18:33N 46°12' W 123°23'0 0.0
2017-Feb-19 17:33N 46°12' W 123°23'0 0.0
2017-Feb-19 16:33N 46°12' W 123°23'0 0.0
2017-Feb-19 15:33N 46°12' W 123°23'0 0.0
2017-Feb-19 14:33N 46°12' W 123°23'0 0.0
2017-Feb-19 13:33N 46°12' W 123°23'0 0.0
2017-Feb-19 12:33N 46°12' W 123°23'0 0.0
2017-Feb-19 11:33N 46°12' W 123°23'0 0.0
2017-Feb-19 10:33N 46°12' W 123°23'0 0.0
2017-Feb-19 09:33N 46°12' W 123°23'0 0.0
2017-Feb-19 08:33N 46°12' W 123°23'0 0.0
2017-Feb-19 07:33N 46°12' W 123°23'0 0.0
2017-Feb-19 06:33N 46°12' W 123°23'0 0.0
2017-Feb-19 05:33N 46°12' W 123°23'0 0.0
2017-Feb-19 04:33N 46°12' W 123°23'0 0.0
2017-Feb-19 03:33N 46°12' W 123°23'0 0.0
2017-Feb-19 02:33N 46°12' W 123°23'0 0.0
2017-Feb-19 01:33N 46°12' W 123°23'0 0.0
2017-Feb-19 00:33N 46°12' W 123°23'0 0.0
2017-Feb-18 23:33N 46°12' W 123°23'0 0.0
2017-Feb-18 22:33N 46°12' W 123°23'0 0.0
2017-Feb-18 21:33N 46°12' W 123°23'0 0.0
2017-Feb-18 20:33N 46°12' W 123°23'0 0.0
2017-Feb-18 19:33N 46°12' W 123°23'0 0.0
2017-Feb-18 18:33N 46°12' W 123°23'0 0.0
2017-Feb-18 17:33N 46°12' W 123°23'0 0.0
2017-Feb-18 16:33N 46°12' W 123°23'0 0.0
2017-Feb-18 15:33N 46°12' W 123°23'0 0.0
2017-Feb-18 14:33N 46°12' W 123°23'0 0.0
2017-Feb-18 13:33N 46°12' W 123°23'0 0.0
2017-Feb-18 12:33N 46°12' W 123°23'0 0.0
2017-Feb-18 11:33N 46°12' W 123°23'0 0.0
2017-Feb-18 10:33N 46°12' W 123°23'0 0.0
2017-Feb-18 09:33N 46°12' W 123°23'0 0.0
2017-Feb-18 08:33N 46°12' W 123°23'0 0.0
2017-Feb-18 07:33N 46°12' W 123°23'0 0.0
2017-Feb-18 06:33N 46°12' W 123°23'0 0.0
2017-Feb-18 05:33N 46°12' W 123°23'0 0.0
2017-Feb-18 04:33N 46°12' W 123°23'0 0.0
2017-Feb-18 03:33N 46°12' W 123°23'0 0.0
2017-Feb-18 02:33N 46°12' W 123°23'0 0.0
2017-Feb-18 01:33N 46°12' W 123°23'0 0.0
2017-Feb-18 00:33N 46°12' W 123°23'0 0.0
2017-Feb-17 23:33N 46°12' W 123°23'0 0.0
2017-Feb-17 22:33N 46°12' W 123°23'0 0.0
2017-Feb-17 21:33N 46°12' W 123°23'0 0.0
2017-Feb-17 20:33N 46°12' W 123°23'0 0.0
2017-Feb-17 19:33N 46°12' W 123°23'0 0.0
2017-Feb-17 18:33N 46°12' W 123°23'0 0.0
2017-Feb-17 17:33N 46°12' W 123°23'0 0.0
2017-Feb-17 16:33N 46°12' W 123°23'0 0.0
2017-Feb-17 15:33N 46°12' W 123°23'0 0.0
2017-Feb-17 14:33N 46°12' W 123°23'0 0.0
2017-Feb-17 13:33N 46°12' W 123°23'0 0.0
2017-Feb-17 12:33N 46°12' W 123°23'0 0.0
2017-Feb-17 11:33N 46°12' W 123°23'0 0.0
2017-Feb-17 10:33N 46°12' W 123°23'0 0.0
2017-Feb-17 09:33N 46°12' W 123°23'0 0.0
2017-Feb-17 08:33N 46°12' W 123°23'0 0.0
2017-Feb-17 07:33N 46°12' W 123°23'0 0.0
2017-Feb-17 06:33N 46°12' W 123°23'0 0.0
2017-Feb-17 05:33N 46°12' W 123°23'0 0.0
2017-Feb-17 04:33N 46°12' W 123°23'0 0.0
2017-Feb-17 03:33N 46°12' W 123°23'0 0.0
2017-Feb-17 02:33N 46°12' W 123°23'0 0.0
2017-Feb-17 01:33N 46°12' W 123°23'0 0.0
2017-Feb-17 00:33N 46°12' W 123°23'0 0.0
2017-Feb-16 23:33N 46°12' W 123°23'0 0.0
2017-Feb-16 22:34N 46°12' W 123°23'0 0.0
2017-Feb-16 21:33N 46°12' W 123°23'0 0.0
2017-Feb-16 20:33N 46°12' W 123°23'0 0.0
2017-Feb-16 19:33N 46°12' W 123°23'0 0.0
2017-Feb-16 18:33N 46°12' W 123°23'0 0.0
2017-Feb-16 17:33N 46°12' W 123°23'0 0.0
2017-Feb-16 16:33N 46°12' W 123°23'0 0.0
2017-Feb-16 15:33N 46°12' W 123°23'0 0.0
2017-Feb-16 14:33N 46°12' W 123°23'0 0.0
2017-Feb-16 13:33N 46°12' W 123°23'0 0.0
2017-Feb-16 12:33N 46°12' W 123°23'0 0.0
2017-Feb-16 11:33N 46°12' W 123°23'0 0.0
2017-Feb-16 10:33N 46°12' W 123°23'0 0.0
2017-Feb-16 09:33N 46°12' W 123°23'0 0.0
2017-Feb-16 08:33N 46°12' W 123°23'0 0.0
2017-Feb-16 07:32N 46°12' W 123°23'0 0.0
2017-Feb-16 06:33N 46°12' W 123°23'0 0.0
2017-Feb-16 05:33N 46°12' W 123°23'0 0.0
2017-Feb-16 04:33N 46°12' W 123°23'0 0.0
2017-Feb-16 03:33N 46°12' W 123°23'0 0.0
2017-Feb-16 02:33N 46°12' W 123°23'0 0.0
2017-Feb-16 01:33N 46°12' W 123°23'  
Track history (hours):
 
Tides and Currents Weather Stations Pressure Air Temp Water Temp Dewpoint Dewpoint Depression Visibility Wind Speed Wind Dir Waves Ship Positions

Arthur Brusco

Owner: Brusco Tug & Barge, Inc, Longview, WA. More information available from US FCC via Universal Licensing System and Coast Guard Vessel Documentation Center.

Last reported at 2017-Feb-26 01:33 UTC. Time now 2017-Apr-30 11:10 UTC.
Position N 46°12' W 123°23'.
Warning: this ship's position is months out of date.

Length 35 m; draft 3.2 m.

Type: Other ship. MMSI: 271040404.

Date/timePositionNaut miles runAvg speedWind from/ knotsBaromVisibWave heightAir tempDewpointWater temp
2017-Feb-26 01:33N 46°12' W 123°23'0 0.0
2017-Feb-26 00:33N 46°12' W 123°23'0 0.0
2017-Feb-25 23:33N 46°12' W 123°23'1 0.7
2017-Feb-25 22:34N 46°12' W 123°24'4 4.3
2017-Feb-25 21:33N 46°09' W 123°21'1110.7
2017-Feb-25 20:33N 46°10' W 123°05'1212.0
2017-Feb-25 19:33N 46°02' W 122°53'1212.2
2017-Feb-25 18:33N 45°51' W 122°47'8 8.1
2017-Feb-25 17:33N 45°43' W 122°46'6 5.9
2017-Feb-25 16:33N 45°37' W 122°47'4 3.6
2017-Feb-25 15:33N 45°34' W 122°44'0 0.0
2017-Feb-25 14:34N 45°34' W 122°44'0 0.4
2017-Feb-25 13:33N 45°34' W 122°43'0 0.0
2017-Feb-25 12:33N 45°34' W 122°43'5 4.6
2017-Feb-25 11:33N 45°37' W 122°47'9 8.5
2017-Feb-25 10:33N 45°46' W 122°46'8 8.1
2017-Feb-25 09:33N 45°54' W 122°48'8 8.1
2017-Feb-25 08:33N 46°01' W 122°52'7 6.7
2017-Feb-25 07:33N 46°06' W 122°58'8 8.0
2017-Feb-25 06:33N 46°11' W 123°08'9 8.9
2017-Feb-25 05:33N 46°09' W 123°20'5 4.8
2017-Feb-25 04:33N 46°12' W 123°24'1 0.6
2017-Feb-25 03:33N 46°12' W 123°23'0 0.0
2017-Feb-25 02:33N 46°12' W 123°23'0 0.0
2017-Feb-25 01:33N 46°12' W 123°23'0 0.0
2017-Feb-25 00:33N 46°12' W 123°23'0 0.0
2017-Feb-24 23:33N 46°12' W 123°23'0 0.0
2017-Feb-24 22:33N 46°12' W 123°23'0 0.0
2017-Feb-24 21:33N 46°12' W 123°23'0 0.0
2017-Feb-24 20:33N 46°12' W 123°23'0 0.0
2017-Feb-24 19:33N 46°12' W 123°23'0 0.0
2017-Feb-24 18:33N 46°12' W 123°23'0 0.0
2017-Feb-24 17:33N 46°12' W 123°23'0 0.0
2017-Feb-24 16:33N 46°12' W 123°23'0 0.0
2017-Feb-24 15:33N 46°12' W 123°23'0 0.0
2017-Feb-24 14:33N 46°12' W 123°23'0 0.0
2017-Feb-24 13:33N 46°12' W 123°23'0 0.0
2017-Feb-24 12:33N 46°12' W 123°23'0 0.0
2017-Feb-24 11:33N 46°12' W 123°23'0 0.0
2017-Feb-24 10:33N 46°12' W 123°23'0 0.0
2017-Feb-24 09:34N 46°12' W 123°23'0 0.0
2017-Feb-24 08:33N 46°12' W 123°23'0 0.0
2017-Feb-24 07:33N 46°12' W 123°23'0 0.0
2017-Feb-24 06:33N 46°12' W 123°23'0 0.0
2017-Feb-24 05:33N 46°12' W 123°23'0 0.0
2017-Feb-24 04:33N 46°12' W 123°23'0 0.0
2017-Feb-24 03:33N 46°12' W 123°23'0 0.0
2017-Feb-24 02:33N 46°12' W 123°23'0 0.0
2017-Feb-24 01:33N 46°12' W 123°23'0 0.0
2017-Feb-24 00:33N 46°12' W 123°23'0 0.0
2017-Feb-23 23:33N 46°12' W 123°23'0 0.0
2017-Feb-23 22:33N 46°12' W 123°23'0 0.1
2017-Feb-23 21:33N 46°12' W 123°23'0 0.1
2017-Feb-23 20:33N 46°12' W 123°23'0 0.0
2017-Feb-23 19:33N 46°12' W 123°23'0 0.0
2017-Feb-23 18:33N 46°12' W 123°23'0 0.0
2017-Feb-23 17:33N 46°12' W 123°23'0 0.0
2017-Feb-23 16:33N 46°12' W 123°23'0 0.0
2017-Feb-23 15:33N 46°12' W 123°23'0 0.0
2017-Feb-23 14:33N 46°12' W 123°23'0 0.0
2017-Feb-23 13:33N 46°12' W 123°23'0 0.0
2017-Feb-23 12:33N 46°12' W 123°23'0 0.0
2017-Feb-23 11:34N 46°12' W 123°23'0 0.0
2017-Feb-23 10:33N 46°12' W 123°23'0 0.0
2017-Feb-23 09:33N 46°12' W 123°23'0 0.0
2017-Feb-23 08:33N 46°12' W 123°23'0 0.0
2017-Feb-23 07:33N 46°12' W 123°23'0 0.0
2017-Feb-23 06:33N 46°12' W 123°23'0 0.0
2017-Feb-23 05:33N 46°12' W 123°23'0 0.0
2017-Feb-23 04:33N 46°12' W 123°23'0 0.0
2017-Feb-23 03:33N 46°12' W 123°23'0 0.0
2017-Feb-23 02:33N 46°12' W 123°23'0 0.0
2017-Feb-23 01:33N 46°12' W 123°23'0 0.0
2017-Feb-23 00:33N 46°12' W 123°23'0 0.0
2017-Feb-22 23:33N 46°12' W 123°23'0 0.0
2017-Feb-22 22:33N 46°12' W 123°23'0 0.0
2017-Feb-22 21:33N 46°12' W 123°23'0 0.0
2017-Feb-22 20:33N 46°12' W 123°23'0 0.0
2017-Feb-22 19:33N 46°12' W 123°23'0 0.0
2017-Feb-22 18:34N 46°12' W 123°23'0 0.0
2017-Feb-22 17:33N 46°12' W 123°23'0 0.0
2017-Feb-22 16:33N 46°12' W 123°23'0 0.0
2017-Feb-22 15:33N 46°12' W 123°23'0 0.0
2017-Feb-22 14:33N 46°12' W 123°23'0 0.0
2017-Feb-22 13:33N 46°12' W 123°23'0 0.0
2017-Feb-22 12:33N 46°12' W 123°23'0 0.0
2017-Feb-22 11:33N 46°12' W 123°23'0 0.0
2017-Feb-22 10:33N 46°12' W 123°23'0 0.0
2017-Feb-22 09:33N 46°12' W 123°23'0 0.0
2017-Feb-22 08:33N 46°12' W 123°23'0 0.0
2017-Feb-22 07:33N 46°12' W 123°23'0 0.0
2017-Feb-22 06:33N 46°12' W 123°23'0 0.0
2017-Feb-22 05:33N 46°12' W 123°23'0 0.0
2017-Feb-22 04:33N 46°12' W 123°23'0 0.0
2017-Feb-22 03:33N 46°12' W 123°23'0 0.0
2017-Feb-22 02:33N 46°12' W 123°23'0 0.0
2017-Feb-22 01:33N 46°12' W 123°23'0 0.0
2017-Feb-22 00:33N 46°12' W 123°23'0 0.0
2017-Feb-21 23:33N 46°12' W 123°23'0 0.0
2017-Feb-21 22:33N 46°12' W 123°23'0 0.0
2017-Feb-21 21:33N 46°12' W 123°23'0 0.0
2017-Feb-21 20:33N 46°12' W 123°23'0 0.0
2017-Feb-21 19:33N 46°12' W 123°23'0 0.0
2017-Feb-21 18:33N 46°12' W 123°23'0 0.0
2017-Feb-21 17:33N 46°12' W 123°23'0 0.0
2017-Feb-21 16:33N 46°12' W 123°23'0 0.0
2017-Feb-21 15:33N 46°12' W 123°23'0 0.0
2017-Feb-21 14:33N 46°12' W 123°23'0 0.0
2017-Feb-21 13:33N 46°12' W 123°23'0 0.0
2017-Feb-21 12:33N 46°12' W 123°23'0 0.0
2017-Feb-21 11:33N 46°12' W 123°23'0 0.0
2017-Feb-21 10:33N 46°12' W 123°23'0 0.0
2017-Feb-21 09:33N 46°12' W 123°23'0 0.0
2017-Feb-21 08:33N 46°12' W 123°23'0 0.0
2017-Feb-21 07:33N 46°12' W 123°23'0 0.0
2017-Feb-21 06:33N 46°12' W 123°23'0 0.0
2017-Feb-21 05:33N 46°12' W 123°23'0 0.0
2017-Feb-21 04:33N 46°12' W 123°23'0 0.0
2017-Feb-21 03:33N 46°12' W 123°23'0 0.0
2017-Feb-21 02:33N 46°12' W 123°23'0 0.0
2017-Feb-21 01:33N 46°12' W 123°23'0 0.0
2017-Feb-21 00:33N 46°12' W 123°23'0 0.0
2017-Feb-20 23:33N 46°12' W 123°23'0 0.0
2017-Feb-20 22:33N 46°12' W 123°23'0 0.0
2017-Feb-20 21:33N 46°12' W 123°23'0 0.0
2017-Feb-20 20:33N 46°12' W 123°23'0 0.0
2017-Feb-20 19:33N 46°12' W 123°23'0 0.0
2017-Feb-20 18:33N 46°12' W 123°23'0 0.0
2017-Feb-20 17:33N 46°12' W 123°23'0 0.0
2017-Feb-20 16:33N 46°12' W 123°23'0 0.0
2017-Feb-20 15:33N 46°12' W 123°23'0 0.0
2017-Feb-20 14:33N 46°12' W 123°23'0 0.0
2017-Feb-20 13:33N 46°12' W 123°23'0 0.0
2017-Feb-20 12:33N 46°12' W 123°23'0 0.0
2017-Feb-20 11:33N 46°12' W 123°23'0 0.0
2017-Feb-20 10:33N 46°12' W 123°23'0 0.0
2017-Feb-20 09:33N 46°12' W 123°23'0 0.0
2017-Feb-20 08:33N 46°12' W 123°23'0 0.0
2017-Feb-20 07:33N 46°12' W 123°23'0 0.0
2017-Feb-20 06:33N 46°12' W 123°23'0 0.0
2017-Feb-20 05:33N 46°12' W 123°23'0 0.0
2017-Feb-20 04:33N 46°12' W 123°23'0 0.0
2017-Feb-20 03:33N 46°12' W 123°23'0 0.0
2017-Feb-20 02:33N 46°12' W 123°23'0 0.0
2017-Feb-20 01:33N 46°12' W 123°23'0 0.0
2017-Feb-20 00:33N 46°12' W 123°23'0 0.0
2017-Feb-19 23:33N 46°12' W 123°23'0 0.0
2017-Feb-19 22:33N 46°12' W 123°23'0 0.0
2017-Feb-19 21:33N 46°12' W 123°23'0 0.0
2017-Feb-19 20:33N 46°12' W 123°23'0 0.0
2017-Feb-19 19:33N 46°12' W 123°23'0 0.0
2017-Feb-19 18:33N 46°12' W 123°23'0 0.0
2017-Feb-19 17:33N 46°12' W 123°23'0 0.0
2017-Feb-19 16:33N 46°12' W 123°23'0 0.0
2017-Feb-19 15:33N 46°12' W 123°23'0 0.0
2017-Feb-19 14:33N 46°12' W 123°23'0 0.0
2017-Feb-19 13:33N 46°12' W 123°23'0 0.0
2017-Feb-19 12:33N 46°12' W 123°23'0 0.0
2017-Feb-19 11:33N 46°12' W 123°23'0 0.0
2017-Feb-19 10:33N 46°12' W 123°23'0 0.0
2017-Feb-19 09:33N 46°12' W 123°23'0 0.0
2017-Feb-19 08:33N 46°12' W 123°23'0 0.0
2017-Feb-19 07:33N 46°12' W 123°23'0 0.0
2017-Feb-19 06:33N 46°12' W 123°23'0 0.0
2017-Feb-19 05:33N 46°12' W 123°23'0 0.0
2017-Feb-19 04:33N 46°12' W 123°23'0 0.0
2017-Feb-19 03:33N 46°12' W 123°23'0 0.0
2017-Feb-19 02:33N 46°12' W 123°23'0 0.0
2017-Feb-19 01:33N 46°12' W 123°23'0 0.0
2017-Feb-19 00:33N 46°12' W 123°23'0 0.0
2017-Feb-18 23:33N 46°12' W 123°23'0 0.0
2017-Feb-18 22:33N 46°12' W 123°23'0 0.0
2017-Feb-18 21:33N 46°12' W 123°23'0 0.0
2017-Feb-18 20:33N 46°12' W 123°23'0 0.0
2017-Feb-18 19:33N 46°12' W 123°23'0 0.0
2017-Feb-18 18:33N 46°12' W 123°23'0 0.0
2017-Feb-18 17:33N 46°12' W 123°23'0 0.0
2017-Feb-18 16:33N 46°12' W 123°23'0 0.0
2017-Feb-18 15:33N 46°12' W 123°23'0 0.0
2017-Feb-18 14:33N 46°12' W 123°23'0 0.0
2017-Feb-18 13:33N 46°12' W 123°23'0 0.0
2017-Feb-18 12:33N 46°12' W 123°23'0 0.0
2017-Feb-18 11:33N 46°12' W 123°23'0 0.0
2017-Feb-18 10:33N 46°12' W 123°23'0 0.0
2017-Feb-18 09:33N 46°12' W 123°23'0 0.0
2017-Feb-18 08:33N 46°12' W 123°23'0 0.0
2017-Feb-18 07:33N 46°12' W 123°23'0 0.0
2017-Feb-18 06:33N 46°12' W 123°23'0 0.0
2017-Feb-18 05:33N 46°12' W 123°23'0 0.0
2017-Feb-18 04:33N 46°12' W 123°23'0 0.0
2017-Feb-18 03:33N 46°12' W 123°23'0 0.0
2017-Feb-18 02:33N 46°12' W 123°23'0 0.0
2017-Feb-18 01:33N 46°12' W 123°23'0 0.0
2017-Feb-18 00:33N 46°12' W 123°23'0 0.0
2017-Feb-17 23:33N 46°12' W 123°23'0 0.0
2017-Feb-17 22:33N 46°12' W 123°23'0 0.0
2017-Feb-17 21:33N 46°12' W 123°23'0 0.0
2017-Feb-17 20:33N 46°12' W 123°23'0 0.0
2017-Feb-17 19:33N 46°12' W 123°23'0 0.0
2017-Feb-17 18:33N 46°12' W 123°23'0 0.0
2017-Feb-17 17:33N 46°12' W 123°23'0 0.0
2017-Feb-17 16:33N 46°12' W 123°23'0 0.0
2017-Feb-17 15:33N 46°12' W 123°23'0 0.0
2017-Feb-17 14:33N 46°12' W 123°23'0 0.0
2017-Feb-17 13:33N 46°12' W 123°23'0 0.0
2017-Feb-17 12:33N 46°12' W 123°23'0 0.0
2017-Feb-17 11:33N 46°12' W 123°23'0 0.0
2017-Feb-17 10:33N 46°12' W 123°23'0 0.0
2017-Feb-17 09:33N 46°12' W 123°23'0 0.0
2017-Feb-17 08:33N 46°12' W 123°23'0 0.0
2017-Feb-17 07:33N 46°12' W 123°23'0 0.0
2017-Feb-17 06:33N 46°12' W 123°23'0 0.0
2017-Feb-17 05:33N 46°12' W 123°23'0 0.0
2017-Feb-17 04:33N 46°12' W 123°23'0 0.0
2017-Feb-17 03:33N 46°12' W 123°23'0 0.0
2017-Feb-17 02:33N 46°12' W 123°23'0 0.0
2017-Feb-17 01:33N 46°12' W 123°23'0 0.0
2017-Feb-17 00:33N 46°12' W 123°23'0 0.0
2017-Feb-16 23:33N 46°12' W 123°23'0 0.0
2017-Feb-16 22:34N 46°12' W 123°23'0 0.0
2017-Feb-16 21:33N 46°12' W 123°23'0 0.0
2017-Feb-16 20:33N 46°12' W 123°23'0 0.0
2017-Feb-16 19:33N 46°12' W 123°23'0 0.0
2017-Feb-16 18:33N 46°12' W 123°23'0 0.0
2017-Feb-16 17:33N 46°12' W 123°23'0 0.0
2017-Feb-16 16:33N 46°12' W 123°23'0 0.0
2017-Feb-16 15:33N 46°12' W 123°23'0 0.0
2017-Feb-16 14:33N 46°12' W 123°23'0 0.0
2017-Feb-16 13:33N 46°12' W 123°23'0 0.0
2017-Feb-16 12:33N 46°12' W 123°23'0 0.0
2017-Feb-16 11:33N 46°12' W 123°23'0 0.0
2017-Feb-16 10:33N 46°12' W 123°23'0 0.0
2017-Feb-16 09:33N 46°12' W 123°23'0 0.0
2017-Feb-16 08:33N 46°12' W 123°23'0 0.0
2017-Feb-16 07:32N 46°12' W 123°23'0 0.0
2017-Feb-16 06:33N 46°12' W 123°23'0 0.0
2017-Feb-16 05:33N 46°12' W 123°23'0 0.0
2017-Feb-16 04:33N 46°12' W 123°23'0 0.0
2017-Feb-16 03:33N 46°12' W 123°23'0 0.0
2017-Feb-16 02:33N 46°12' W 123°23'0 0.0
2017-Feb-16 01:33N 46°12' W 123°23'  

Dump ship's entire track history